Time;durP1;ratioP1;P1;durP2;ratioP2;P2;SDS_P1;SDS_P2;PMS_P1;PMS_P2;Temp;Humidity;BMP_temperature;BMP_pressure;BME280_temperature;BME280_humidity;BME280_pressure;Samples;Min_cycle;Max_cycle;Signal;HPM_P1;HPM_P2
2023/08/24 00:01:15;;;;;;;8.27;4.65;;;;;;;;;;4994267;28;20555;-46
2023/08/24 00:03:40;;;;;;;9.27;4.60;;;;;;;;;;4996734;28;20511;-50
2023/08/24 00:06:06;;;;;;;11.30;4.53;;;;;;;;;;4994287;28;20026;-45
2023/08/24 00:08:32;;;;;;;18.35;4.22;;;;;;;;;;5003246;28;20042;-47
2023/08/24 00:10:57;;;;;;;19.83;4.38;;;;;;;;;;4994858;28;20571;-48
2023/08/24 00:13:23;;;;;;;9.60;4.47;;;;;;;;;;4992851;28;20081;-50
2023/08/24 00:15:48;;;;;;;11.55;4.07;;;;;;;;;;4996779;28;20034;-50
2023/08/24 00:18:14;;;;;;;11.43;4.45;;;;;;;;;;4995364;28;20042;-47
2023/08/24 00:20:39;;;;;;;14.38;4.22;;;;;;;;;;4995038;28;20038;-52
2023/08/24 00:23:05;;;;;;;8.35;4.25;;;;;;;;;;4976563;28;20046;-49
2023/08/24 00:25:31;;;;;;;10.18;4.60;;;;;;;;;;4995342;28;20092;-47
2023/08/24 00:27:56;;;;;;;4.60;3.90;;;;;;;;;;4995944;28;20386;-50
2023/08/24 00:30:22;;;;;;;5.68;4.07;;;;;;;;;;4994035;28;20064;-48
2023/08/24 00:32:48;;;;;;;8.18;4.63;;;;;;;;;;4995027;28;20488;-52
2023/08/24 00:35:13;;;;;;;15.80;4.72;;;;;;;;;;4993963;28;20060;-49
2023/08/24 00:37:39;;;;;;;10.40;4.63;;;;;;;;;;4995536;28;20076;-48
2023/08/24 00:40:09;;;;;;;6.35;4.28;;;;;;;;;;4993951;28;20088;-45
2023/08/24 00:42:39;;;;;;;8.43;4.13;;;;;;;;;;4994587;28;20034;-49
2023/08/24 00:45:05;;;;;;;6.60;4.30;;;;;;;;;;4994270;28;20026;-49
2023/08/24 00:47:31;;;;;;;9.20;4.60;;;;;;;;;;4994301;28;20397;-48
2023/08/24 00:49:57;;;;;;;13.52;4.40;;;;;;;;;;4993270;28;20030;-49
2023/08/24 00:52:25;;;;;;;8.75;4.47;;;;;;;;;;4995648;28;20037;-48
2023/08/24 00:54:51;;;;;;;8.32;4.80;;;;;;;;;;4993186;28;20043;-50
2023/08/24 00:57:16;;;;;;;11.90;4.30;;;;;;;;;;4993757;28;20034;-49
2023/08/24 00:59:42;;;;;;;6.43;4.28;;;;;;;;;;4994963;28;20459;-49
2023/08/24 01:02:07;;;;;;;8.30;4.30;;;;;;;;;;4995013;28;20040;-49
2023/08/24 01:04:33;;;;;;;7.93;4.35;;;;;;;;;;4994095;28;20046;-48
2023/08/24 01:06:58;;;;;;;8.00;4.15;;;;;;;;;;4959737;28;20038;-47
2023/08/24 01:09:24;;;;;;;5.57;4.35;;;;;;;;;;4997941;28;20038;-50
2023/08/24 01:12:04;;;;;;;8.65;4.30;;;;;;;;;;5000029;28;20030;-51
2023/08/24 01:14:37;;;;;;;9.57;4.65;;;;;;;;;;4996016;28;20392;-48
2023/08/24 01:17:05;;;;;;;8.23;4.70;;;;;;;;;;4998634;28;20026;-50
2023/08/24 01:19:44;;;;;;;7.03;4.53;;;;;;;;;;4997194;28;20125;-49
2023/08/24 01:22:38;;;;;;;12.73;4.90;;;;;;;;;;4998987;28;20033;-48
2023/08/24 01:25:15;;;;;;;11.63;4.88;;;;;;;;;;4992479;28;20057;-49
2023/08/24 01:27:42;;;;;;;11.95;5.20;;;;;;;;;;5031101;28;20125;-45
2023/08/24 01:30:08;;;;;;;12.88;5.32;;;;;;;;;;4997531;28;20060;-46
2023/08/24 01:32:35;;;;;;;8.38;5.15;;;;;;;;;;4997068;28;20033;-45
2023/08/24 01:35:05;;;;;;;11.20;4.95;;;;;;;;;;4996995;28;20037;-47
2023/08/24 01:37:31;;;;;;;9.43;5.03;;;;;;;;;;4997839;28;20073;-50
2023/08/24 01:40:22;;;;;;;9.55;4.78;;;;;;;;;;4999422;28;20042;-49
2023/08/24 01:43:01;;;;;;;9.05;4.95;;;;;;;;;;4996075;28;20101;-49
2023/08/24 01:45:30;;;;;;;6.85;5.00;;;;;;;;;;4995264;28;20034;-48
2023/08/24 01:47:57;;;;;;;7.10;4.60;;;;;;;;;;4997523;28;20038;-48
2023/08/24 01:50:23;;;;;;;12.25;5.40;;;;;;;;;;4998351;28;20480;-47
2023/08/24 01:52:50;;;;;;;9.02;4.95;;;;;;;;;;4997487;28;20034;-48
2023/08/24 01:55:18;;;;;;;10.57;5.30;;;;;;;;;;4996959;28;20057;-48
2023/08/24 01:57:44;;;;;;;7.82;4.47;;;;;;;;;;4999190;28;20114;-46
2023/08/24 02:00:09;;;;;;;6.55;4.90;;;;;;;;;;4999328;28;20058;-48
2023/08/24 02:02:35;;;;;;;8.82;5.07;;;;;;;;;;4996063;28;20465;-47
2023/08/24 02:05:02;;;;;;;6.78;5.05;;;;;;;;;;4998619;28;20101;-47
2023/08/24 02:07:28;;;;;;;7.53;5.22;;;;;;;;;;4995762;28;20030;-51
2023/08/24 02:09:53;;;;;;;10.85;5.15;;;;;;;;;;4997432;28;20019;-47
2023/08/24 02:12:19;;;;;;;5.00;4.55;;;;;;;;;;4997424;28;20038;-52
2023/08/24 02:14:44;;;;;;;14.40;5.60;;;;;;;;;;5025592;28;20046;-49
2023/08/24 02:17:09;;;;;;;8.73;4.88;;;;;;;;;;4997416;28;20028;-47
2023/08/24 02:19:35;;;;;;;9.50;4.88;;;;;;;;;;4997368;28;20046;-49
2023/08/24 02:22:00;;;;;;;5.35;4.75;;;;;;;;;;4997410;28;20117;-47
2023/08/24 02:24:26;;;;;;;7.78;5.07;;;;;;;;;;4995788;28;20512;-49
2023/08/24 02:26:51;;;;;;;7.90;4.75;;;;;;;;;;4997312;28;20113;-48
2023/08/24 02:29:18;;;;;;;7.55;4.80;;;;;;;;;;4996921;28;20042;-50
2023/08/24 02:31:43;;;;;;;6.93;4.68;;;;;;;;;;4996378;28;20026;-49
2023/08/24 02:34:09;;;;;;;8.05;4.88;;;;;;;;;;4996701;28;20051;-48
2023/08/24 02:36:34;;;;;;;9.50;4.78;;;;;;;;;;4998769;28;20046;-50
2023/08/24 02:39:00;;;;;;;9.68;4.90;;;;;;;;;;4995043;28;20034;-50
2023/08/24 02:41:26;;;;;;;7.00;4.68;;;;;;;;;;4997199;28;20033;-48
2023/08/24 02:43:51;;;;;;;9.10;4.70;;;;;;;;;;4994046;28;20457;-48
2023/08/24 02:46:18;;;;;;;10.45;4.55;;;;;;;;;;4995195;28;20033;-47
2023/08/24 02:48:44;;;;;;;7.20;4.90;;;;;;;;;;4999184;28;20043;-45
2023/08/24 02:51:10;;;;;;;5.60;4.90;;;;;;;;;;4996820;28;20469;-49
2023/08/24 02:53:36;;;;;;;8.60;5.60;;;;;;;;;;4995867;28;20157;-48
2023/08/24 02:56:02;;;;;;;5.80;4.78;;;;;;;;;;4995068;28;20038;-49
2023/08/24 02:58:27;;;;;;;6.85;5.18;;;;;;;;;;4996360;28;20038;-49
2023/08/24 03:00:53;;;;;;;8.55;5.10;;;;;;;;;;4996170;28;20030;-45
2023/08/24 03:03:19;;;;;;;10.70;4.85;;;;;;;;;;4997897;28;20161;-49
2023/08/24 03:05:58;;;;;;;9.52;5.15;;;;;;;;;;4996261;28;20030;-48
2023/08/24 03:08:25;;;;;;;7.57;4.88;;;;;;;;;;4996472;28;20129;-50
2023/08/24 03:10:50;;;;;;;5.43;4.97;;;;;;;;;;4996188;28;20641;-51
2023/08/24 03:13:16;;;;;;;8.35;5.45;;;;;;;;;;4997485;28;20042;-50
2023/08/24 03:15:41;;;;;;;10.10;4.90;;;;;;;;;;4995148;28;20034;-47
2023/08/24 03:18:07;;;;;;;6.82;4.82;;;;;;;;;;4997637;28;20046;-46
2023/08/24 03:20:32;;;;;;;7.90;4.88;;;;;;;;;;4997477;28;20018;-46
2023/08/24 03:22:58;;;;;;;6.80;4.68;;;;;;;;;;4996448;28;20061;-49
2023/08/24 03:25:23;;;;;;;5.00;4.50;;;;;;;;;;4996390;28;20034;-51
2023/08/24 03:27:50;;;;;;;6.90;5.18;;;;;;;;;;4995851;28;20501;-50
2023/08/24 03:30:15;;;;;;;11.70;5.05;;;;;;;;;;4994895;28;20030;-51
2023/08/24 03:32:41;;;;;;;5.57;4.93;;;;;;;;;;4996959;28;20025;-48
2023/08/24 03:35:07;;;;;;;6.30;4.68;;;;;;;;;;4993165;28;20120;-48
2023/08/24 03:37:32;;;;;;;7.55;5.07;;;;;;;;;;4996878;28;20045;-51
2023/08/24 03:39:58;;;;;;;6.72;4.80;;;;;;;;;;4996013;28;20038;-50
2023/08/24 03:42:23;;;;;;;7.88;4.30;;;;;;;;;;4996560;28;20026;-46
2023/08/24 03:44:49;;;;;;;8.32;4.10;;;;;;;;;;4994983;28;20421;-52
2023/08/24 03:47:14;;;;;;;9.02;4.93;;;;;;;;;;4997452;28;20129;-47
2023/08/24 03:49:43;;;;;;;7.43;4.72;;;;;;;;;;4995299;28;20042;-46
2023/08/24 03:52:08;;;;;;;13.20;5.15;;;;;;;;;;4996937;28;20046;-52
2023/08/24 03:54:34;;;;;;;6.82;4.30;;;;;;;;;;4994897;28;20060;-48
2023/08/24 03:56:59;;;;;;;9.43;4.60;;;;;;;;;;4994864;28;20050;-46
2023/08/24 03:59:24;;;;;;;7.50;4.85;;;;;;;;;;4994565;28;20169;-51
2023/08/24 04:01:50;;;;;;;9.70;4.80;;;;;;;;;;4993815;28;20480;-50
2023/08/24 04:04:15;;;;;;;9.23;4.40;;;;;;;;;;4993289;28;20039;-48
2023/08/24 04:06:41;;;;;;;5.80;4.45;;;;;;;;;;4995606;28;20026;-51
2023/08/24 04:09:06;;;;;;;14.15;5.00;;;;;;;;;;4995880;28;20062;-49
2023/08/24 04:11:32;;;;;;;11.48;4.72;;;;;;;;;;4996091;28;20033;-48
2023/08/24 04:13:57;;;;;;;5.50;4.63;;;;;;;;;;4992640;28;20035;-52
2023/08/24 04:16:22;;;;;;;10.48;4.90;;;;;;;;;;4995825;28;20026;-46
2023/08/24 04:18:48;;;;;;;6.20;4.80;;;;;;;;;;4992691;28;20501;-48
2023/08/24 04:21:13;;;;;;;7.93;4.43;;;;;;;;;;4996800;28;20038;-49
2023/08/24 04:23:44;;;;;;;5.65;4.57;;;;;;;;;;4995862;28;20428;-46
2023/08/24 04:26:10;;;;;;;6.78;4.00;;;;;;;;;;4995817;28;20030;-50
2023/08/24 04:28:36;;;;;;;6.47;4.90;;;;;;;;;;4991961;28;20177;-50
2023/08/24 04:31:01;;;;;;;7.75;4.38;;;;;;;;;;4996442;28;20128;-48
2023/08/24 04:33:27;;;;;;;4.82;4.32;;;;;;;;;;4995263;28;20034;-51
2023/08/24 04:35:52;;;;;;;6.95;4.85;;;;;;;;;;4994754;28;20050;-50
2023/08/24 04:38:18;;;;;;;7.68;4.63;;;;;;;;;;4994026;28;20102;-50
2023/08/24 04:40:54;;;;;;;7.20;4.70;;;;;;;;;;4986328;28;20105;-47
2023/08/24 04:43:21;;;;;;;7.18;4.40;;;;;;;;;;4995231;28;20104;-47
2023/08/24 04:45:53;;;;;;;9.40;4.53;;;;;;;;;;4994954;28;20030;-49
2023/08/24 04:48:22;;;;;;;5.18;4.60;;;;;;;;;;4993680;28;20401;-51
2023/08/24 04:50:49;;;;;;;7.57;4.40;;;;;;;;;;4996176;28;20416;-47
2023/08/24 04:53:16;;;;;;;7.50;4.38;;;;;;;;;;4991860;28;20051;-49
2023/08/24 04:55:42;;;;;;;7.07;4.07;;;;;;;;;;4995054;28;20119;-49
2023/08/24 04:58:08;;;;;;;4.78;4.07;;;;;;;;;;4990170;28;20093;-53
2023/08/24 05:00:34;;;;;;;11.98;4.45;;;;;;;;;;4996354;28;20027;-45
2023/08/24 05:03:01;;;;;;;9.68;4.15;;;;;;;;;;4993066;28;20041;-50
2023/08/24 05:05:28;;;;;;;8.98;4.60;;;;;;;;;;4989487;28;20054;-46
2023/08/24 05:07:54;;;;;;;6.72;4.38;;;;;;;;;;4976897;28;20042;-47
2023/08/24 05:10:20;;;;;;;13.38;4.30;;;;;;;;;;4978654;28;20034;-48
2023/08/24 05:12:45;;;;;;;6.75;4.00;;;;;;;;;;5027700;28;20026;-49
2023/08/24 05:15:11;;;;;;;6.57;4.20;;;;;;;;;;4996252;28;20034;-49
2023/08/24 05:17:36;;;;;;;7.00;4.40;;;;;;;;;;4992119;28;20039;-49
2023/08/24 05:20:03;;;;;;;4.95;4.15;;;;;;;;;;4996359;28;20035;-46
2023/08/24 05:22:29;;;;;;;7.75;4.30;;;;;;;;;;4993248;28;20035;-49
2023/08/24 05:24:54;;;;;;;6.97;3.97;;;;;;;;;;4992551;28;20053;-50
2023/08/24 05:27:19;;;;;;;6.65;4.70;;;;;;;;;;4994625;28;20039;-49
2023/08/24 05:29:45;;;;;;;6.63;4.13;;;;;;;;;;4991266;28;20765;-47
2023/08/24 05:32:10;;;;;;;9.23;4.93;;;;;;;;;;5023949;28;20472;-46
2023/08/24 05:34:36;;;;;;;7.72;4.50;;;;;;;;;;4998004;28;20049;-46
2023/08/24 05:37:01;;;;;;;6.30;3.97;;;;;;;;;;4991740;28;20042;-48
2023/08/24 05:39:26;;;;;;;8.35;4.13;;;;;;;;;;4990787;28;20042;-49
2023/08/24 05:41:52;;;;;;;10.32;4.40;;;;;;;;;;4989662;28;20034;-47
2023/08/24 05:44:21;;;;;;;15.63;4.90;;;;;;;;;;4989177;28;20126;-49
2023/08/24 05:46:47;;;;;;;10.63;4.63;;;;;;;;;;4989042;28;20483;-46
2023/08/24 05:49:13;;;;;;;8.20;4.63;;;;;;;;;;4992332;28;20073;-50
2023/08/24 05:51:38;;;;;;;12.32;4.25;;;;;;;;;;4990394;28;20126;-46
2023/08/24 05:54:04;;;;;;;8.63;4.28;;;;;;;;;;4993521;28;20125;-48
2023/08/24 05:56:29;;;;;;;7.88;4.43;;;;;;;;;;4993568;28;20085;-53
2023/08/24 05:58:58;;;;;;;12.50;5.45;;;;;;;;;;5030574;28;20045;-50
2023/08/24 06:01:23;;;;;;;11.32;4.32;;;;;;;;;;4995348;28;20033;-51
2023/08/24 06:03:49;;;;;;;7.38;4.47;;;;;;;;;;4999947;28;20046;-47
2023/08/24 06:06:15;;;;;;;10.43;4.53;;;;;;;;;;4995577;28;20069;-48
2023/08/24 06:08:42;;;;;;;10.75;4.63;;;;;;;;;;4992848;28;20485;-47
2023/08/24 06:11:07;;;;;;;16.42;5.22;;;;;;;;;;4993594;28;20049;-50
2023/08/24 06:13:33;;;;;;;10.30;4.15;;;;;;;;;;4997515;28;20042;-48
2023/08/24 06:15:58;;;;;;;8.50;4.53;;;;;;;;;;4995459;28;20788;-46
2023/08/24 06:18:23;;;;;;;8.85;4.30;;;;;;;;;;4996028;28;20069;-48
2023/08/24 06:20:49;;;;;;;10.82;4.88;;;;;;;;;;4994949;28;20030;-48
2023/08/24 06:23:16;;;;;;;9.98;4.57;;;;;;;;;;4991934;28;20039;-49
2023/08/24 06:25:42;;;;;;;6.03;4.57;;;;;;;;;;4994362;28;20030;-47
2023/08/24 06:28:09;;;;;;;10.35;4.40;;;;;;;;;;4995577;28;20045;-47
2023/08/24 06:30:40;;;;;;;18.27;4.50;;;;;;;;;;4994883;28;20105;-50
2023/08/24 06:33:06;;;;;;;9.40;4.43;;;;;;;;;;4996641;28;20423;-49
2023/08/24 06:35:35;;;;;;;8.60;4.13;;;;;;;;;;4996619;28;20046;-51
2023/08/24 06:38:01;;;;;;;7.80;5.05;;;;;;;;;;4989152;28;20045;-47
2023/08/24 06:40:27;;;;;;;9.40;4.72;;;;;;;;;;4991799;28;20022;-48
2023/08/24 06:42:52;;;;;;;10.05;4.60;;;;;;;;;;4994720;28;20030;-47
2023/08/24 06:45:18;;;;;;;5.20;4.47;;;;;;;;;;4996267;28;20034;-48
2023/08/24 06:47:44;;;;;;;9.45;5.07;;;;;;;;;;4994712;28;20042;-49
2023/08/24 06:50:10;;;;;;;9.25;4.68;;;;;;;;;;4994362;28;20030;-48
2023/08/24 06:52:35;;;;;;;10.93;4.38;;;;;;;;;;4991480;28;20037;-47
2023/08/24 06:55:01;;;;;;;6.70;4.90;;;;;;;;;;4994965;28;20031;-49
2023/08/24 06:57:27;;;;;;;5.65;4.55;;;;;;;;;;4996764;28;20657;-49
2023/08/24 06:59:52;;;;;;;8.05;4.40;;;;;;;;;;4994773;28;20388;-50
2023/08/24 07:02:18;;;;;;;11.25;4.80;;;;;;;;;;4976062;28;20037;-48
2023/08/24 07:04:44;;;;;;;7.07;4.53;;;;;;;;;;4989028;28;20046;-49
2023/08/24 07:07:10;;;;;;;5.40;4.30;;;;;;;;;;4993294;28;20038;-47
2023/08/24 07:09:35;;;;;;;9.18;4.65;;;;;;;;;;4991749;28;20093;-50
2023/08/24 07:12:06;;;;;;;11.50;4.70;;;;;;;;;;4986907;28;20175;-48
2023/08/24 07:14:35;;;;;;;7.00;4.65;;;;;;;;;;4990081;28;20518;-48
2023/08/24 07:17:00;;;;;;;10.25;4.53;;;;;;;;;;4993867;28;20019;-49
2023/08/24 07:19:26;;;;;;;11.98;4.32;;;;;;;;;;4990609;28;20089;-51
2023/08/24 07:21:52;;;;;;;21.00;5.68;;;;;;;;;;4992356;28;20030;-49
2023/08/24 07:24:20;;;;;;;7.68;5.25;;;;;;;;;;4987236;28;20130;-51
2023/08/24 07:26:46;;;;;;;5.80;4.22;;;;;;;;;;4990236;28;20029;-52
2023/08/24 07:29:12;;;;;;;13.40;4.28;;;;;;;;;;4993837;28;20038;-49
2023/08/24 07:31:37;;;;;;;21.92;5.70;;;;;;;;;;4992902;28;20117;-51
2023/08/24 07:34:03;;;;;;;17.08;5.53;;;;;;;;;;4996186;28;20053;-45
2023/08/24 07:36:30;;;;;;;16.73;5.85;;;;;;;;;;4996353;28;20070;-47
2023/08/24 07:38:55;;;;;;;14.43;5.30;;;;;;;;;;4992541;28;20045;-47
2023/08/24 07:41:21;;;;;;;13.07;5.07;;;;;;;;;;4997016;28;20037;-50
2023/08/24 07:43:46;;;;;;;22.98;7.00;;;;;;;;;;4991397;28;20122;-47
2023/08/24 07:46:12;;;;;;;13.25;5.68;;;;;;;;;;4996618;28;20037;-48
2023/08/24 07:48:37;;;;;;;20.42;5.68;;;;;;;;;;4994122;28;20049;-47
2023/08/24 07:51:02;;;;;;;18.50;6.05;;;;;;;;;;4994615;28;20061;-47
2023/08/24 07:53:29;;;;;;;15.25;4.95;;;;;;;;;;4993892;28;20046;-47
2023/08/24 07:55:57;;;;;;;10.02;5.68;;;;;;;;;;5026254;28;20117;-46
2023/08/24 07:58:23;;;;;;;13.73;6.05;;;;;;;;;;4996667;28;20038;-49
2023/08/24 08:00:51;;;;;;;8.77;6.05;;;;;;;;;;4995623;28;20026;-48
2023/08/24 08:03:20;;;;;;;20.30;5.95;;;;;;;;;;4992452;28;20122;-46
2023/08/24 08:05:47;;;;;;;14.82;6.05;;;;;;;;;;4995797;28;20025;-48
2023/08/24 08:08:16;;;;;;;18.70;6.82;;;;;;;;;;4993181;28;20155;-48
2023/08/24 08:10:42;;;;;;;13.30;5.45;;;;;;;;;;4994688;28;20038;-49
2023/08/24 08:28:58;;;;;;;12.68;5.30;;;;;;;;;;5034139;28;21031;-54
2023/08/24 08:31:24;;;;;;;8.88;5.53;;;;;;;;;;5032056;28;20030;-49
2023/08/24 08:33:49;;;;;;;15.40;5.90;;;;;;;;;;5026462;28;20034;-51
2023/08/24 08:36:14;;;;;;;16.92;6.30;;;;;;;;;;5026197;28;20056;-53
2023/08/24 08:38:40;;;;;;;18.13;5.30;;;;;;;;;;5037526;28;20550;-52
2023/08/24 08:41:05;;;;;;;11.73;5.50;;;;;;;;;;5050810;28;20486;-53
2023/08/24 08:43:31;;;;;;;15.70;6.80;;;;;;;;;;5041091;28;20042;-53
2023/08/24 08:45:59;;;;;;;10.30;5.78;;;;;;;;;;5030401;28;20075;-54
2023/08/24 08:48:25;;;;;;;11.20;6.13;;;;;;;;;;5027513;28;20072;-53
2023/08/24 08:50:51;;;;;;;18.70;5.80;;;;;;;;;;5031862;28;20041;-54
2023/08/24 08:53:20;;;;;;;17.13;5.82;;;;;;;;;;5036587;28;20051;-52
2023/08/24 08:55:45;;;;;;;10.32;6.55;;;;;;;;;;5024684;28;20022;-54
2023/08/24 08:58:11;;;;;;;9.15;5.60;;;;;;;;;;5027744;28;20114;-54
2023/08/24 09:00:37;;;;;;;15.57;6.07;;;;;;;;;;5023931;28;20057;-53
2023/08/24 09:03:04;;;;;;;13.80;6.40;;;;;;;;;;5026378;28;20403;-55
2023/08/24 09:05:30;;;;;;;13.25;6.32;;;;;;;;;;5030375;28;20029;-53
2023/08/24 09:07:59;;;;;;;19.65;7.30;;;;;;;;;;5024598;28;20455;-52
2023/08/24 09:10:24;;;;;;;14.85;6.28;;;;;;;;;;5029952;28;20045;-56
2023/08/24 09:12:50;;;;;;;16.92;6.80;;;;;;;;;;5024663;28;20046;-53
2023/08/24 09:15:25;;;;;;;7.03;6.28;;;;;;;;;;5039965;28;20041;-55
2023/08/24 09:17:50;;;;;;;7.97;6.55;;;;;;;;;;5027272;28;20041;-53
2023/08/24 09:20:16;;;;;;;18.40;6.32;;;;;;;;;;5029800;28;20029;-54
2023/08/24 09:22:44;;;;;;;12.60;6.35;;;;;;;;;;5017618;28;20018;-54
2023/08/24 09:25:10;;;;;;;9.75;6.45;;;;;;;;;;5024516;28;20507;-53
2023/08/24 09:27:35;;;;;;;11.98;7.22;;;;;;;;;;5022818;28;20042;-55
2023/08/24 09:30:00;;;;;;;10.98;6.43;;;;;;;;;;5059572;28;20087;-55
2023/08/24 09:32:31;;;;;;;8.77;6.43;;;;;;;;;;5030844;28;20029;-54
2023/08/24 09:35:02;;;;;;;14.00;7.43;;;;;;;;;;5019271;28;20373;-56
2023/08/24 09:37:33;;;;;;;12.25;7.10;;;;;;;;;;5022153;28;20019;-56
2023/08/24 09:40:07;;;;;;;8.18;6.57;;;;;;;;;;5026829;28;20159;-54
2023/08/24 09:42:37;;;;;;;7.43;5.78;;;;;;;;;;5023605;28;20120;-55
2023/08/24 09:45:07;;;;;;;10.38;6.55;;;;;;;;;;5041735;28;20033;-52
2023/08/24 09:47:33;;;;;;;9.90;6.63;;;;;;;;;;5043848;28;20036;-54
2023/08/24 09:49:59;;;;;;;10.65;7.07;;;;;;;;;;5015794;28;20030;-54
2023/08/24 09:52:28;;;;;;;7.32;6.10;;;;;;;;;;5029590;28;20034;-54
2023/08/24 09:54:54;;;;;;;10.02;6.22;;;;;;;;;;5038572;28;20046;-52
2023/08/24 09:57:21;;;;;;;11.75;6.28;;;;;;;;;;5041224;28;20378;-55
2023/08/24 09:59:49;;;;;;;7.00;6.30;;;;;;;;;;5037090;28;20037;-54
2023/08/24 10:02:20;;;;;;;9.10;6.43;;;;;;;;;;5035500;28;20030;-56
2023/08/24 10:04:47;;;;;;;15.93;6.70;;;;;;;;;;5031849;28;20728;-55
2023/08/24 10:07:20;;;;;;;11.77;6.75;;;;;;;;;;5034117;28;20511;-55
2023/08/24 10:10:00;;;;;;;15.80;7.13;;;;;;;;;;5031647;28;20050;-53
2023/08/24 10:12:28;;;;;;;12.82;6.20;;;;;;;;;;5034577;28;20030;-49
2023/08/24 10:15:01;;;;;;;14.27;7.10;;;;;;;;;;5036820;28;20483;-56
2023/08/24 10:17:27;;;;;;;9.23;6.70;;;;;;;;;;5032483;28;20045;-54
2023/08/24 10:19:55;;;;;;;12.18;6.10;;;;;;;;;;5035317;28;20036;-55
2023/08/24 10:22:21;;;;;;;11.32;6.50;;;;;;;;;;5033800;28;20071;-56
2023/08/24 10:24:48;;;;;;;14.65;6.50;;;;;;;;;;5034015;28;20041;-54
2023/08/24 10:27:14;;;;;;;6.72;6.00;;;;;;;;;;5033720;28;20558;-52
2023/08/24 10:29:40;;;;;;;11.40;6.40;;;;;;;;;;5031710;28;20531;-55
2023/08/24 10:32:06;;;;;;;12.60;6.00;;;;;;;;;;5037338;28;20083;-55
2023/08/24 10:34:32;;;;;;;9.50;6.22;;;;;;;;;;5033067;28;20488;-54
2023/08/24 10:37:12;;;;;;;9.38;5.93;;;;;;;;;;5036230;28;20102;-54
2023/08/24 10:39:44;;;;;;;9.48;5.97;;;;;;;;;;5008448;28;20686;-54
2023/08/24 10:42:14;;;;;;;7.65;6.22;;;;;;;;;;5013649;28;20624;-55
2023/08/24 10:44:44;;;;;;;14.60;6.47;;;;;;;;;;5034401;28;20049;-56
2023/08/24 10:47:16;;;;;;;10.85;5.93;;;;;;;;;;5035680;28;20445;-53
2023/08/24 10:49:56;;;;;;;11.88;5.97;;;;;;;;;;5029279;28;20034;-55
2023/08/24 10:52:22;;;;;;;13.07;5.68;;;;;;;;;;5035410;28;20419;-53
2023/08/24 10:54:49;;;;;;;6.60;5.85;;;;;;;;;;5014864;28;20468;-55
2023/08/24 10:57:22;;;;;;;13.07;5.60;;;;;;;;;;5015093;28;20018;-53
2023/08/24 11:00:05;;;;;;;7.18;5.20;;;;;;;;;;5022594;28;20038;-56
2023/08/24 11:02:42;;;;;;;14.15;5.43;;;;;;;;;;5015336;28;20116;-54
2023/08/24 11:05:19;;;;;;;7.72;5.10;;;;;;;;;;5032530;28;20388;-55
2023/08/24 11:07:50;;;;;;;8.75;4.82;;;;;;;;;;5033713;28;20022;-56
2023/08/24 11:10:16;;;;;;;9.82;4.93;;;;;;;;;;5009336;28;20033;-53
2023/08/24 11:13:03;;;;;;;9.52;5.10;;;;;;;;;;5015225;28;20038;-55
2023/08/24 11:15:37;;;;;;;13.80;4.63;;;;;;;;;;5000491;28;20034;-55
2023/08/24 11:18:27;;;;;;;8.07;4.07;;;;;;;;;;5012636;28;20057;-54
2023/08/24 11:21:03;;;;;;;8.88;4.40;;;;;;;;;;5012289;28;20435;-55
2023/08/24 11:23:29;;;;;;;5.22;3.92;;;;;;;;;;5008019;28;20488;-54
2023/08/24 11:25:57;;;;;;;8.95;4.03;;;;;;;;;;5007492;28;20380;-52
2023/08/24 11:28:27;;;;;;;6.63;3.97;;;;;;;;;;5011314;28;20033;-54
2023/08/24 11:30:54;;;;;;;6.47;3.87;;;;;;;;;;5013115;28;20036;-54
2023/08/24 11:33:30;;;;;;;8.68;3.95;;;;;;;;;;5011511;28;20460;-54
2023/08/24 11:35:56;;;;;;;6.43;4.15;;;;;;;;;;5011110;28;20025;-56
2023/08/24 11:38:21;;;;;;;5.85;4.13;;;;;;;;;;5014074;28;20042;-55
2023/08/24 11:40:47;;;;;;;7.25;3.95;;;;;;;;;;5013231;28;20428;-53
2023/08/24 11:43:12;;;;;;;8.30;4.35;;;;;;;;;;5014502;28;20041;-54
2023/08/24 11:45:40;;;;;;;6.55;4.10;;;;;;;;;;5002973;28;20436;-54
2023/08/24 11:48:06;;;;;;;18.38;4.35;;;;;;;;;;5009258;28;20069;-51
2023/08/24 11:50:34;;;;;;;9.25;3.80;;;;;;;;;;5010258;28;20026;-53
2023/08/24 11:53:00;;;;;;;5.13;4.07;;;;;;;;;;5012917;28;20037;-56
2023/08/24 11:55:26;;;;;;;7.13;4.20;;;;;;;;;;5013564;28;20034;-53
2023/08/24 11:57:51;;;;;;;13.38;4.18;;;;;;;;;;5009510;28;20042;-53
2023/08/24 12:00:21;;;;;;;12.65;4.30;;;;;;;;;;5008021;28;20037;-55
2023/08/24 12:02:47;;;;;;;10.23;4.90;;;;;;;;;;5002890;28;20396;-55
2023/08/24 12:05:26;;;;;;;11.05;4.32;;;;;;;;;;5011987;28;20504;-53
2023/08/24 12:07:53;;;;;;;12.38;4.80;;;;;;;;;;5007522;28;20034;-52
2023/08/24 12:10:19;;;;;;;18.10;4.93;;;;;;;;;;5007994;28;20053;-54
2023/08/24 12:12:45;;;;;;;12.95;4.18;;;;;;;;;;5009424;28;20567;-54
2023/08/24 12:15:19;;;;;;;14.52;4.45;;;;;;;;;;5013780;28;20660;-53
2023/08/24 12:17:45;;;;;;;9.60;4.28;;;;;;;;;;5012096;28;25820;-53
2023/08/24 12:20:21;;;;;;;13.45;4.70;;;;;;;;;;5015908;28;20029;-54
2023/08/24 12:22:51;;;;;;;9.38;3.92;;;;;;;;;;5008124;28;20053;-51
2023/08/24 12:25:17;;;;;;;15.15;4.10;;;;;;;;;;5015759;28;20026;-55
2023/08/24 12:27:42;;;;;;;7.43;4.03;;;;;;;;;;5014313;28;20048;-53
2023/08/24 12:30:10;;;;;;;8.68;3.85;;;;;;;;;;5008241;28;20038;-54
2023/08/24 12:32:47;;;;;;;11.60;3.92;;;;;;;;;;5007769;28;20026;-55
2023/08/24 12:35:16;;;;;;;12.23;4.15;;;;;;;;;;5013662;28;20105;-53
2023/08/24 12:37:42;;;;;;;6.47;4.00;;;;;;;;;;5020719;28;20033;-55
2023/08/24 12:40:07;;;;;;;4.32;3.63;;;;;;;;;;5011466;28;20026;-55
2023/08/24 12:42:33;;;;;;;9.35;4.53;;;;;;;;;;5004585;28;20029;-54
2023/08/24 12:44:59;;;;;;;9.10;4.10;;;;;;;;;;5006409;28;20041;-52
2023/08/24 12:47:24;;;;;;;7.93;4.07;;;;;;;;;;5002533;28;20015;-55
2023/08/24 12:49:54;;;;;;;13.70;4.25;;;;;;;;;;5004044;28;20102;-55
2023/08/24 12:52:19;;;;;;;12.65;3.90;;;;;;;;;;5015189;28;20086;-56
2023/08/24 12:54:45;;;;;;;6.68;3.83;;;;;;;;;;5012300;28;20145;-56
2023/08/24 12:57:10;;;;;;;6.13;3.75;;;;;;;;;;5014559;28;20425;-55
2023/08/24 12:59:36;;;;;;;4.38;3.75;;;;;;;;;;5032566;28;20053;-55
2023/08/24 13:02:01;;;;;;;5.72;3.65;;;;;;;;;;5034374;28;20029;-54
2023/08/24 13:04:32;;;;;;;5.22;3.40;;;;;;;;;;5033871;28;20116;-53
2023/08/24 13:06:57;;;;;;;7.10;3.55;;;;;;;;;;5034629;28;20117;-53
2023/08/24 13:09:23;;;;;;;3.65;3.22;;;;;;;;;;5018177;28;20069;-55
2023/08/24 13:11:49;;;;;;;8.27;3.47;;;;;;;;;;5007279;28;20034;-52
2023/08/24 13:14:14;;;;;;;8.45;3.85;;;;;;;;;;5012414;28;20045;-55
2023/08/24 13:16:39;;;;;;;7.22;3.70;;;;;;;;;;5010864;28;20021;-55
2023/08/24 13:19:05;;;;;;;4.88;3.42;;;;;;;;;;5018085;28;20049;-54
2023/08/24 13:21:31;;;;;;;6.00;3.20;;;;;;;;;;5005417;28;20026;-54
2023/08/24 13:23:56;;;;;;;4.97;3.38;;;;;;;;;;5016575;28;20038;-56
2023/08/24 13:26:23;;;;;;;4.10;3.67;;;;;;;;;;5014345;28;20100;-54
2023/08/24 13:28:49;;;;;;;3.92;3.63;;;;;;;;;;5016960;28;20065;-54
2023/08/24 13:31:14;;;;;;;8.43;3.80;;;;;;;;;;5018566;28;20026;-53
2023/08/24 13:33:40;;;;;;;8.45;4.10;;;;;;;;;;5027145;28;20069;-55
2023/08/24 13:36:05;;;;;;;11.82;3.83;;;;;;;;;;5043053;28;20547;-54
2023/08/24 13:38:31;;;;;;;4.95;3.70;;;;;;;;;;5037993;28;20119;-54
2023/08/24 13:40:56;;;;;;;6.15;3.90;;;;;;;;;;5035682;28;20078;-55
2023/08/24 13:43:22;;;;;;;8.15;4.18;;;;;;;;;;5033969;28;20064;-51
2023/08/24 13:45:48;;;;;;;7.53;4.40;;;;;;;;;;5038789;28;20022;-54
2023/08/24 13:48:13;;;;;;;7.28;4.05;;;;;;;;;;5032342;28;20088;-55
2023/08/24 13:50:41;;;;;;;6.22;3.95;;;;;;;;;;5036765;28;20033;-54
2023/08/24 13:53:06;;;;;;;5.28;3.65;;;;;;;;;;5037410;28;20030;-55
2023/08/24 13:55:32;;;;;;;4.20;3.75;;;;;;;;;;5037100;28;20025;-55
2023/08/24 13:57:57;;;;;;;7.05;4.10;;;;;;;;;;5030306;28;20042;-55
2023/08/24 14:00:23;;;;;;;7.63;4.18;;;;;;;;;;5016833;28;20914;-54
2023/08/24 14:02:49;;;;;;;6.47;4.07;;;;;;;;;;5016410;28;20514;-52
2023/08/24 14:05:14;;;;;;;11.55;4.50;;;;;;;;;;5015474;28;20416;-52
2023/08/24 14:07:40;;;;;;;8.02;4.20;;;;;;;;;;5009052;28;20026;-52
2023/08/24 14:10:08;;;;;;;7.63;4.55;;;;;;;;;;5013847;28;20032;-55
2023/08/24 14:12:34;;;;;;;7.82;4.90;;;;;;;;;;5017263;28;20044;-54
2023/08/24 14:15:00;;;;;;;8.95;4.50;;;;;;;;;;5020290;28;20025;-51
2023/08/24 14:17:26;;;;;;;8.90;4.15;;;;;;;;;;5021505;28;20030;-53
2023/08/24 14:19:52;;;;;;;8.27;4.07;;;;;;;;;;5015511;28;20042;-51
2023/08/24 14:22:17;;;;;;;4.00;3.53;;;;;;;;;;5011608;28;20040;-52
2023/08/24 14:24:42;;;;;;;6.43;3.70;;;;;;;;;;5035551;28;20029;-51
2023/08/24 14:27:08;;;;;;;13.18;3.92;;;;;;;;;;5037639;28;20136;-52
2023/08/24 14:29:33;;;;;;;14.88;3.97;;;;;;;;;;5033365;28;20071;-51
2023/08/24 14:31:58;;;;;;;7.32;3.92;;;;;;;;;;5035357;28;20038;-52
2023/08/24 14:34:24;;;;;;;7.60;3.53;;;;;;;;;;5033087;28;20507;-53
2023/08/24 14:36:49;;;;;;;16.33;3.80;;;;;;;;;;5036461;28;20033;-54
2023/08/24 14:39:15;;;;;;;15.00;3.67;;;;;;;;;;5018132;28;20088;-55
2023/08/24 14:41:40;;;;;;;6.53;3.20;;;;;;;;;;5013159;28;20030;-51
2023/08/24 14:44:06;;;;;;;12.05;3.83;;;;;;;;;;5006472;28;20041;-54
2023/08/24 14:46:32;;;;;;;12.93;3.28;;;;;;;;;;5017225;28;20048;-51
2023/08/24 14:48:58;;;;;;;10.77;3.05;;;;;;;;;;5007829;28;20048;-54
2023/08/24 14:51:23;;;;;;;7.60;2.95;;;;;;;;;;5000939;28;20030;-54
2023/08/24 14:53:49;;;;;;;10.00;3.38;;;;;;;;;;5020430;28;20038;-53